Apple Creek, Ohio
Current Conditions -  °F | °C
As of 4:51 AM on Saturday 22 Nov 2014 (Local Time) from KCAK Reporting Station
Scattered Clouds Scattered Clouds  
Wind Chill: -13°   Ceiling: Unl
Heat Index: -6°   Visibility: 10mi
Dew Point: -13°   Wind: 13mph
Humidity: 60%   Direction: 170°S
Pressure: 30.29"   Gusts: NA
Location:  40.75°N, 81.84°W
Report Text: KCAK 220951Z 17011KT 10SM SCT080 SCT180 M06/M13 A3029 RMK AO2 SLP276 T10611128 $
Loading
Personal Weather Stations






























Interactive Weather Map New forecast layout! Learn more

10-Day Weather Forecast

Advertisements
Track Severe Weather on mobile